sensor_id;sensor_type;location;lat;lon;timestamp;P1;P2;P0
72467;PMS3003;60626;43.582;1.470;2023-02-28T00:00:51;15.00;14.25;12.00
72467;PMS3003;60626;43.582;1.470;2023-02-28T00:03:18;17.50;16.00;11.25
72467;PMS3003;60626;43.582;1.470;2023-02-28T00:05:44;17.50;14.50;10.25
72467;PMS3003;60626;43.582;1.470;2023-02-28T00:08:11;16.75;14.75;11.25
72467;PMS3003;60626;43.582;1.470;2023-02-28T00:10:39;16.50;14.75;11.50
72467;PMS3003;60626;43.582;1.470;2023-02-28T00:13:06;13.25;13.25;10.25
72467;PMS3003;60626;43.582;1.470;2023-02-28T00:15:33;11.00;9.75;8.00
72467;PMS3003;60626;43.582;1.470;2023-02-28T00:18:00;13.75;10.50;8.00
72467;PMS3003;60626;43.582;1.470;2023-02-28T00:20:26;11.00;9.75;8.25
72467;PMS3003;60626;43.582;1.470;2023-02-28T00:22:54;12.00;12.00;10.50
72467;PMS3003;60626;43.582;1.470;2023-02-28T00:25:22;16.75;13.75;11.50
72467;PMS3003;60626;43.582;1.470;2023-02-28T00:27:50;15.50;15.50;12.00
72467;PMS3003;60626;43.582;1.470;2023-02-28T00:30:18;21.50;14.00;11.00
72467;PMS3003;60626;43.582;1.470;2023-02-28T00:32:46;13.00;12.50;11.00
72467;PMS3003;60626;43.582;1.470;2023-02-28T00:35:13;18.50;15.75;11.25
72467;PMS3003;60626;43.582;1.470;2023-02-28T00:37:40;14.00;13.50;11.00
72467;PMS3003;60626;43.582;1.470;2023-02-28T00:40:07;17.50;14.75;11.00
72467;PMS3003;60626;43.582;1.470;2023-02-28T00:42:35;13.50;12.25;10.00
72467;PMS3003;60626;43.582;1.470;2023-02-28T00:45:03;16.00;16.00;11.00
72467;PMS3003;60626;43.582;1.470;2023-02-28T00:47:34;12.00;10.75;8.50
72467;PMS3003;60626;43.582;1.470;2023-02-28T00:50:01;14.50;12.50;10.25
72467;PMS3003;60626;43.582;1.470;2023-02-28T00:52:29;13.25;13.25;10.00
72467;PMS3003;60626;43.582;1.470;2023-02-28T00:54:55;18.25;12.75;11.00
72467;PMS3003;60626;43.582;1.470;2023-02-28T00:57:22;15.50;15.00;10.00
72467;PMS3003;60626;43.582;1.470;2023-02-28T00:59:49;15.00;13.50;9.00
72467;PMS3003;60626;43.582;1.470;2023-02-28T01:02:16;14.50;12.00;9.00
72467;PMS3003;60626;43.582;1.470;2023-02-28T01:04:44;12.75;12.75;10.00
72467;PMS3003;60626;43.582;1.470;2023-02-28T01:07:10;14.75;14.75;9.25
72467;PMS3003;60626;43.582;1.470;2023-02-28T01:09:37;12.00;12.00;10.00
72467;PMS3003;60626;43.582;1.470;2023-02-28T01:12:04;13.25;13.25;10.25
72467;PMS3003;60626;43.582;1.470;2023-02-28T01:14:30;17.25;14.00;10.00
72467;PMS3003;60626;43.582;1.470;2023-02-28T01:16:57;15.00;13.25;9.75
72467;PMS3003;60626;43.582;1.470;2023-02-28T01:19:24;14.50;13.25;10.75
72467;PMS3003;60626;43.582;1.470;2023-02-28T01:21:50;14.75;14.75;11.00
72467;PMS3003;60626;43.582;1.470;2023-02-28T01:24:17;12.75;12.75;9.00
72467;PMS3003;60626;43.582;1.470;2023-02-28T01:26:44;13.25;12.25;11.00
72467;PMS3003;60626;43.582;1.470;2023-02-28T01:29:11;14.25;13.25;10.25
72467;PMS3003;60626;43.582;1.470;2023-02-28T01:31:37;16.50;13.00;10.00
72467;PMS3003;60626;43.582;1.470;2023-02-28T01:34:04;17.50;14.50;11.00
72467;PMS3003;60626;43.582;1.470;2023-02-28T01:36:31;16.50;14.75;10.50
72467;PMS3003;60626;43.582;1.470;2023-02-28T01:38:57;17.00;13.50;10.00
72467;PMS3003;60626;43.582;1.470;2023-02-28T01:41:25;11.00;10.00;8.75
72467;PMS3003;60626;43.582;1.470;2023-02-28T01:43:58;16.00;14.75;9.25
72467;PMS3003;60626;43.582;1.470;2023-02-28T01:46:34;20.00;17.75;11.00
72467;PMS3003;60626;43.582;1.470;2023-02-28T01:51:41;17.25;16.00;10.25
72467;PMS3003;60626;43.582;1.470;2023-02-28T01:54:22;11.75;11.75;10.00
72467;PMS3003;60626;43.582;1.470;2023-02-28T01:56:53;12.25;12.25;10.25
72467;PMS3003;60626;43.582;1.470;2023-02-28T01:59:27;15.50;15.50;11.00
72467;PMS3003;60626;43.582;1.470;2023-02-28T02:01:59;12.75;12.00;9.75
72467;PMS3003;60626;43.582;1.470;2023-02-28T02:04:30;16.00;12.75;9.00
72467;PMS3003;60626;43.582;1.470;2023-02-28T02:07:04;15.25;12.75;10.00
72467;PMS3003;60626;43.582;1.470;2023-02-28T02:09:32;15.00;15.00;10.25
72467;PMS3003;60626;43.582;1.470;2023-02-28T02:11:58;12.50;12.00;9.75
72467;PMS3003;60626;43.582;1.470;2023-02-28T02:17:38;12.75;8.50;4.25
72467;PMS3003;60626;43.582;1.470;2023-02-28T02:28:40;19.50;15.00;9.50
72467;PMS3003;60626;43.582;1.470;2023-02-28T02:34:26;13.50;13.50;11.00
72467;PMS3003;60626;43.582;1.470;2023-02-28T02:37:32;14.50;14.50;10.50
72467;PMS3003;60626;43.582;1.470;2023-02-28T02:45:25;17.75;16.25;13.00
72467;PMS3003;60626;43.582;1.470;2023-02-28T02:48:02;14.75;12.25;9.50
72467;PMS3003;60626;43.582;1.470;2023-02-28T02:50:34;20.25;16.75;11.50
72467;PMS3003;60626;43.582;1.470;2023-02-28T02:53:05;16.50;13.50;11.00
72467;PMS3003;60626;43.582;1.470;2023-02-28T02:55:37;17.00;13.00;10.25
72467;PMS3003;60626;43.582;1.470;2023-02-28T02:58:08;16.50;12.50;9.00
72467;PMS3003;60626;43.582;1.470;2023-02-28T03:00:41;19.50;18.00;13.25
72467;PMS3003;60626;43.582;1.470;2023-02-28T03:03:12;16.50;15.50;11.00
72467;PMS3003;60626;43.582;1.470;2023-02-28T03:05:47;15.50;12.75;9.75
72467;PMS3003;60626;43.582;1.470;2023-02-28T03:08:16;12.25;12.25;10.00
72467;PMS3003;60626;43.582;1.470;2023-02-28T03:10:43;15.75;15.75;11.50
72467;PMS3003;60626;43.582;1.470;2023-02-28T03:13:19;19.25;14.25;11.00
72467;PMS3003;60626;43.582;1.470;2023-02-28T03:22:05;17.00;15.00;11.25
72467;PMS3003;60626;43.582;1.470;2023-02-28T03:24:50;15.25;13.25;10.00
72467;PMS3003;60626;43.582;1.470;2023-02-28T03:27:34;16.25;16.25;12.25
72467;PMS3003;60626;43.582;1.470;2023-02-28T03:30:15;15.00;15.00;11.50
72467;PMS3003;60626;43.582;1.470;2023-02-28T03:32:57;19.00;16.00;10.00
72467;PMS3003;60626;43.582;1.470;2023-02-28T03:35:33;19.25;17.75;12.00
72467;PMS3003;60626;43.582;1.470;2023-02-28T03:38:14;23.75;19.50;11.25
72467;PMS3003;60626;43.582;1.470;2023-02-28T03:41:06;14.75;14.75;9.50
72467;PMS3003;60626;43.582;1.470;2023-02-28T03:43:39;16.75;15.50;12.00
72467;PMS3003;60626;43.582;1.470;2023-02-28T03:46:09;19.00;18.25;11.00
72467;PMS3003;60626;43.582;1.470;2023-02-28T03:48:45;11.50;11.50;10.25
72467;PMS3003;60626;43.582;1.470;2023-02-28T03:51:27;13.00;12.25;8.50
72467;PMS3003;60626;43.582;1.470;2023-02-28T03:53:57;19.25;18.50;11.75
72467;PMS3003;60626;43.582;1.470;2023-02-28T03:56:34;21.25;16.25;11.50
72467;PMS3003;60626;43.582;1.470;2023-02-28T03:59:49;17.25;15.00;10.00
72467;PMS3003;60626;43.582;1.470;2023-02-28T04:01:58;20.50;14.75;10.25
72467;PMS3003;60626;43.582;1.470;2023-02-28T04:04:26;15.50;15.50;12.25
72467;PMS3003;60626;43.582;1.470;2023-02-28T04:06:52;18.00;17.75;12.00
72467;PMS3003;60626;43.582;1.470;2023-02-28T04:09:28;15.00;15.00;12.00
72467;PMS3003;60626;43.582;1.470;2023-02-28T04:11:55;21.25;17.75;13.00
72467;PMS3003;60626;43.582;1.470;2023-02-28T04:14:22;17.75;17.75;13.00
72467;PMS3003;60626;43.582;1.470;2023-02-28T04:16:49;16.50;16.50;12.00
72467;PMS3003;60626;43.582;1.470;2023-02-28T04:19:17;18.75;15.50;10.50
72467;PMS3003;60626;43.582;1.470;2023-02-28T04:21:46;17.50;16.75;11.75
72467;PMS3003;60626;43.582;1.470;2023-02-28T04:24:16;18.75;18.75;12.00
72467;PMS3003;60626;43.582;1.470;2023-02-28T04:26:48;20.00;17.75;13.00
72467;PMS3003;60626;43.582;1.470;2023-02-28T04:29:30;19.50;15.50;10.75
72467;PMS3003;60626;43.582;1.470;2023-02-28T04:32:01;18.50;15.25;12.50
72467;PMS3003;60626;43.582;1.470;2023-02-28T04:34:29;20.25;17.25;11.75
72467;PMS3003;60626;43.582;1.470;2023-02-28T04:36:57;17.75;17.00;11.25
72467;PMS3003;60626;43.582;1.470;2023-02-28T04:39:37;19.00;19.00;12.00
72467;PMS3003;60626;43.582;1.470;2023-02-28T04:42:05;17.75;17.75;12.50
72467;PMS3003;60626;43.582;1.470;2023-02-28T04:44:32;19.00;18.00;12.00
72467;PMS3003;60626;43.582;1.470;2023-02-28T04:46:58;19.25;14.25;10.75
72467;PMS3003;60626;43.582;1.470;2023-02-28T04:49:25;19.00;17.50;13.25
72467;PMS3003;60626;43.582;1.470;2023-02-28T04:51:52;18.50;16.50;12.00
72467;PMS3003;60626;43.582;1.470;2023-02-28T04:54:19;18.75;17.00;12.00
72467;PMS3003;60626;43.582;1.470;2023-02-28T04:56:46;24.00;16.50;13.00
72467;PMS3003;60626;43.582;1.470;2023-02-28T04:59:14;19.00;16.50;12.75
72467;PMS3003;60626;43.582;1.470;2023-02-28T05:01:44;19.50;17.00;12.00
72467;PMS3003;60626;43.582;1.470;2023-02-28T05:04:13;19.25;19.00;13.25
72467;PMS3003;60626;43.582;1.470;2023-02-28T05:06:39;22.50;20.75;14.50
72467;PMS3003;60626;43.582;1.470;2023-02-28T05:09:06;22.00;20.50;15.00
72467;PMS3003;60626;43.582;1.470;2023-02-28T05:11:33;21.25;20.50;15.25
72467;PMS3003;60626;43.582;1.470;2023-02-28T05:14:06;16.00;15.25;10.00
72467;PMS3003;60626;43.582;1.470;2023-02-28T05:16:36;19.75;18.50;13.75
72467;PMS3003;60626;43.582;1.470;2023-02-28T05:19:03;31.25;23.00;14.25
72467;PMS3003;60626;43.582;1.470;2023-02-28T05:21:31;22.75;20.25;16.00
72467;PMS3003;60626;43.582;1.470;2023-02-28T05:24:03;21.00;17.50;14.00
72467;PMS3003;60626;43.582;1.470;2023-02-28T05:26:34;21.00;18.75;14.25
72467;PMS3003;60626;43.582;1.470;2023-02-28T05:29:02;20.75;18.50;14.00
72467;PMS3003;60626;43.582;1.470;2023-02-28T05:31:28;23.00;18.00;12.00
72467;PMS3003;60626;43.582;1.470;2023-02-28T05:33:55;23.50;19.75;14.50
72467;PMS3003;60626;43.582;1.470;2023-02-28T05:36:23;26.75;22.50;14.25
72467;PMS3003;60626;43.582;1.470;2023-02-28T05:38:50;24.75;20.00;15.50
72467;PMS3003;60626;43.582;1.470;2023-02-28T05:41:17;22.75;20.25;16.00
72467;PMS3003;60626;43.582;1.470;2023-02-28T05:43:45;22.75;19.75;13.25
72467;PMS3003;60626;43.582;1.470;2023-02-28T05:46:13;25.50;20.00;13.25
72467;PMS3003;60626;43.582;1.470;2023-02-28T05:48:40;21.75;21.75;17.00
72467;PMS3003;60626;43.582;1.470;2023-02-28T05:51:08;24.25;23.00;15.50
72467;PMS3003;60626;43.582;1.470;2023-02-28T05:53:35;22.25;22.25;17.00
72467;PMS3003;60626;43.582;1.470;2023-02-28T05:56:02;26.75;19.00;14.75
72467;PMS3003;60626;43.582;1.470;2023-02-28T05:58:29;22.00;20.00;16.50
72467;PMS3003;60626;43.582;1.470;2023-02-28T06:00:57;25.75;20.75;15.75
72467;PMS3003;60626;43.582;1.470;2023-02-28T06:03:25;22.25;22.25;17.00
72467;PMS3003;60626;43.582;1.470;2023-02-28T06:05:53;21.00;21.00;15.25
72467;PMS3003;60626;43.582;1.470;2023-02-28T06:08:20;23.25;22.25;16.50
72467;PMS3003;60626;43.582;1.470;2023-02-28T06:10:47;28.00;25.50;16.75
72467;PMS3003;60626;43.582;1.470;2023-02-28T06:13:13;28.75;26.50;17.50
72467;PMS3003;60626;43.582;1.470;2023-02-28T06:15:40;24.50;23.25;17.00
72467;PMS3003;60626;43.582;1.470;2023-02-28T06:18:07;23.00;21.50;16.25
72467;PMS3003;60626;43.582;1.470;2023-02-28T06:20:34;28.75;24.75;16.75
72467;PMS3003;60626;43.582;1.470;2023-02-28T06:23:02;27.00;27.00;19.00
72467;PMS3003;60626;43.582;1.470;2023-02-28T06:25:29;28.75;25.00;15.00
72467;PMS3003;60626;43.582;1.470;2023-02-28T06:27:56;30.75;25.00;18.00
72467;PMS3003;60626;43.582;1.470;2023-02-28T06:30:23;29.00;26.75;19.50
72467;PMS3003;60626;43.582;1.470;2023-02-28T06:32:53;25.25;23.50;17.75
72467;PMS3003;60626;43.582;1.470;2023-02-28T06:35:20;31.50;24.00;17.25
72467;PMS3003;60626;43.582;1.470;2023-02-28T06:37:47;31.50;25.50;18.75
72467;PMS3003;60626;43.582;1.470;2023-02-28T06:40:14;27.00;25.25;17.75
72467;PMS3003;60626;43.582;1.470;2023-02-28T06:42:41;31.00;26.25;17.75
72467;PMS3003;60626;43.582;1.470;2023-02-28T06:45:09;28.25;24.75;19.00
72467;PMS3003;60626;43.582;1.470;2023-02-28T06:47:40;28.00;25.25;16.25
72467;PMS3003;60626;43.582;1.470;2023-02-28T06:50:08;29.50;26.25;18.00
72467;PMS3003;60626;43.582;1.470;2023-02-28T06:52:37;34.50;29.25;19.75
72467;PMS3003;60626;43.582;1.470;2023-02-28T06:55:05;34.75;32.00;23.00
72467;PMS3003;60626;43.582;1.470;2023-02-28T06:57:33;25.25;25.25;19.00
72467;PMS3003;60626;43.582;1.470;2023-02-28T07:00:02;33.75;28.25;18.00
72467;PMS3003;60626;43.582;1.470;2023-02-28T07:02:34;26.50;24.50;18.25
72467;PMS3003;60626;43.582;1.470;2023-02-28T07:05:02;29.00;29.00;19.75
72467;PMS3003;60626;43.582;1.470;2023-02-28T07:07:29;27.50;25.25;19.50
72467;PMS3003;60626;43.582;1.470;2023-02-28T07:09:55;26.25;22.00;16.00
72467;PMS3003;60626;43.582;1.470;2023-02-28T07:12:22;26.75;22.00;15.75
72467;PMS3003;60626;43.582;1.470;2023-02-28T07:14:49;28.25;23.50;18.00
72467;PMS3003;60626;43.582;1.470;2023-02-28T07:17:16;20.75;20.75;17.00
72467;PMS3003;60626;43.582;1.470;2023-02-28T07:19:42;18.00;18.00;16.00
72467;PMS3003;60626;43.582;1.470;2023-02-28T07:22:09;27.25;24.25;17.25
72467;PMS3003;60626;43.582;1.470;2023-02-28T07:24:36;27.75;24.25;15.75
72467;PMS3003;60626;43.582;1.470;2023-02-28T07:27:02;25.50;24.50;17.50
72467;PMS3003;60626;43.582;1.470;2023-02-28T07:29:29;21.75;21.75;18.25
72467;PMS3003;60626;43.582;1.470;2023-02-28T07:31:56;24.75;23.00;16.50
72467;PMS3003;60626;43.582;1.470;2023-02-28T07:34:22;29.00;25.75;18.75
72467;PMS3003;60626;43.582;1.470;2023-02-28T07:36:52;25.00;25.00;18.25
72467;PMS3003;60626;43.582;1.470;2023-02-28T07:39:20;21.00;18.00;14.25
72467;PMS3003;60626;43.582;1.470;2023-02-28T07:41:48;25.25;25.25;17.75
72467;PMS3003;60626;43.582;1.470;2023-02-28T07:44:14;26.75;24.00;18.00
72467;PMS3003;60626;43.582;1.470;2023-02-28T07:46:42;24.50;23.50;16.75
72467;PMS3003;60626;43.582;1.470;2023-02-28T07:49:09;24.50;21.50;16.50
72467;PMS3003;60626;43.582;1.470;2023-02-28T07:51:35;25.00;22.25;15.50
72467;PMS3003;60626;43.582;1.470;2023-02-28T07:54:02;21.50;20.25;15.75
72467;PMS3003;60626;43.582;1.470;2023-02-28T07:56:29;22.50;18.25;14.25
72467;PMS3003;60626;43.582;1.470;2023-02-28T07:58:56;21.75;21.75;15.50
72467;PMS3003;60626;43.582;1.470;2023-02-28T08:01:23;24.00;22.50;15.50
72467;PMS3003;60626;43.582;1.470;2023-02-28T08:03:50;22.00;18.75;13.25
72467;PMS3003;60626;43.582;1.470;2023-02-28T08:06:18;21.50;19.75;13.75
72467;PMS3003;60626;43.582;1.470;2023-02-28T08:08:46;25.50;20.50;11.00
72467;PMS3003;60626;43.582;1.470;2023-02-28T08:11:14;20.50;20.00;13.50
72467;PMS3003;60626;43.582;1.470;2023-02-28T08:13:42;19.25;18.25;12.50
72467;PMS3003;60626;43.582;1.470;2023-02-28T08:16:10;20.75;20.75;15.50
72467;PMS3003;60626;43.582;1.470;2023-02-28T08:18:38;25.50;22.50;16.50
72467;PMS3003;60626;43.582;1.470;2023-02-28T08:21:05;21.25;21.25;16.00
72467;PMS3003;60626;43.582;1.470;2023-02-28T08:23:33;23.25;23.25;16.50
72467;PMS3003;60626;43.582;1.470;2023-02-28T08:26:00;29.50;25.75;17.00
72467;PMS3003;60626;43.582;1.470;2023-02-28T08:28:26;22.00;20.00;14.50
72467;PMS3003;60626;43.582;1.470;2023-02-28T08:30:53;19.25;19.25;12.00
72467;PMS3003;60626;43.582;1.470;2023-02-28T08:33:21;24.00;23.50;18.00
72467;PMS3003;60626;43.582;1.470;2023-02-28T08:35:51;21.25;19.00;14.25
72467;PMS3003;60626;43.582;1.470;2023-02-28T08:38:20;21.75;21.75;15.00
72467;PMS3003;60626;43.582;1.470;2023-02-28T08:40:46;25.25;21.00;16.25
72467;PMS3003;60626;43.582;1.470;2023-02-28T08:43:13;30.25;24.00;16.25
72467;PMS3003;60626;43.582;1.470;2023-02-28T08:45:40;29.00;24.75;16.00
72467;PMS3003;60626;43.582;1.470;2023-02-28T08:48:06;26.00;22.75;16.00
72467;PMS3003;60626;43.582;1.470;2023-02-28T08:50:33;26.00;23.50;16.25
72467;PMS3003;60626;43.582;1.470;2023-02-28T08:53:00;18.50;18.25;13.50
72467;PMS3003;60626;43.582;1.470;2023-02-28T08:55:26;20.25;16.25;13.00
72467;PMS3003;60626;43.582;1.470;2023-02-28T08:57:53;22.00;20.50;14.00
72467;PMS3003;60626;43.582;1.470;2023-02-28T09:00:21;20.25;17.50;13.75
72467;PMS3003;60626;43.582;1.470;2023-02-28T09:02:48;17.25;15.50;13.00
72467;PMS3003;60626;43.582;1.470;2023-02-28T09:05:15;20.25;18.25;13.00
72467;PMS3003;60626;43.582;1.470;2023-02-28T09:07:41;24.25;21.75;14.75
72467;PMS3003;60626;43.582;1.470;2023-02-28T09:10:09;20.50;17.50;12.50
72467;PMS3003;60626;43.582;1.470;2023-02-28T09:12:37;18.50;16.50;14.00
72467;PMS3003;60626;43.582;1.470;2023-02-28T09:15:04;22.25;21.50;15.75
72467;PMS3003;60626;43.582;1.470;2023-02-28T09:17:31;22.00;20.75;14.75
72467;PMS3003;60626;43.582;1.470;2023-02-28T09:19:58;24.25;20.25;15.00
72467;PMS3003;60626;43.582;1.470;2023-02-28T09:22:24;17.50;17.50;13.50
72467;PMS3003;60626;43.582;1.470;2023-02-28T09:24:51;20.00;20.00;13.25
72467;PMS3003;60626;43.582;1.470;2023-02-28T09:27:18;21.75;18.50;15.00
72467;PMS3003;60626;43.582;1.470;2023-02-28T09:29:45;22.25;21.00;14.50
72467;PMS3003;60626;43.582;1.470;2023-02-28T09:32:11;17.50;17.00;13.00
72467;PMS3003;60626;43.582;1.470;2023-02-28T09:34:38;20.75;18.75;15.00
72467;PMS3003;60626;43.582;1.470;2023-02-28T09:37:05;18.00;18.00;14.00
72467;PMS3003;60626;43.582;1.470;2023-02-28T09:39:32;22.00;18.50;14.25
72467;PMS3003;60626;43.582;1.470;2023-02-28T09:41:58;18.25;16.75;12.50
72467;PMS3003;60626;43.582;1.470;2023-02-28T09:46:58;17.00;17.00;10.75
72467;PMS3003;60626;43.582;1.470;2023-02-28T09:49:39;21.00;19.00;12.25
72467;PMS3003;60626;43.582;1.470;2023-02-28T09:52:13;19.00;17.00;12.25
72467;PMS3003;60626;43.582;1.470;2023-02-28T09:54:43;22.00;17.25;12.00
72467;PMS3003;60626;43.582;1.470;2023-02-28T10:05:16;15.25;15.25;12.25
72467;PMS3003;60626;43.582;1.470;2023-02-28T10:14:10;24.00;22.25;16.00
72467;PMS3003;60626;43.582;1.470;2023-02-28T10:16:16;19.75;18.50;14.00
72467;PMS3003;60626;43.582;1.470;2023-02-28T10:19:10;24.00;19.00;14.75
72467;PMS3003;60626;43.582;1.470;2023-02-28T10:21:56;19.00;19.00;13.00
72467;PMS3003;60626;43.582;1.470;2023-02-28T10:24:29;24.50;20.25;15.00
72467;PMS3003;60626;43.582;1.470;2023-02-28T10:27:01;17.75;17.75;13.25
72467;PMS3003;60626;43.582;1.470;2023-02-28T10:29:37;24.25;20.75;15.25
72467;PMS3003;60626;43.582;1.470;2023-02-28T10:32:09;20.75;17.50;13.50
72467;PMS3003;60626;43.582;1.470;2023-02-28T10:34:40;21.25;17.50;13.00
72467;PMS3003;60626;43.582;1.470;2023-02-28T10:37:07;20.00;17.50;14.25
72467;PMS3003;60626;43.582;1.470;2023-02-28T10:42:05;17.50;17.00;12.00
72467;PMS3003;60626;43.582;1.470;2023-02-28T10:44:46;19.25;17.75;13.00
72467;PMS3003;60626;43.582;1.470;2023-02-28T10:47:18;20.75;19.25;15.00
72467;PMS3003;60626;43.582;1.470;2023-02-28T10:49:49;19.50;17.50;13.50
72467;PMS3003;60626;43.582;1.470;2023-02-28T10:52:37;15.00;15.00;10.50
72467;PMS3003;60626;43.582;1.470;2023-02-28T10:55:22;21.25;19.25;14.50
72467;PMS3003;60626;43.582;1.470;2023-02-28T10:57:51;16.75;15.75;13.00
72467;PMS3003;60626;43.582;1.470;2023-02-28T11:00:22;18.00;16.50;14.25
72467;PMS3003;60626;43.582;1.470;2023-02-28T11:02:54;19.00;16.50;13.00
72467;PMS3003;60626;43.582;1.470;2023-02-28T11:07:56;23.50;20.50;14.25
72467;PMS3003;60626;43.582;1.470;2023-02-28T11:10:26;20.75;19.25;15.00
72467;PMS3003;60626;43.582;1.470;2023-02-28T11:12:56;26.50;23.25;15.00
72467;PMS3003;60626;43.582;1.470;2023-02-28T11:15:32;21.25;20.00;14.00
72467;PMS3003;60626;43.582;1.470;2023-02-28T11:20:39;20.50;18.50;13.00
72467;PMS3003;60626;43.582;1.470;2023-02-28T11:23:10;21.50;20.00;15.75
72467;PMS3003;60626;43.582;1.470;2023-02-28T11:25:40;27.50;24.25;15.25
72467;PMS3003;60626;43.582;1.470;2023-02-28T11:28:31;25.75;23.50;16.25
72467;PMS3003;60626;43.582;1.470;2023-02-28T11:31:02;24.25;24.25;17.25
72467;PMS3003;60626;43.582;1.470;2023-02-28T11:36:10;23.00;19.00;14.75
72467;PMS3003;60626;43.582;1.470;2023-02-28T11:38:40;20.00;18.00;14.25
72467;PMS3003;60626;43.582;1.470;2023-02-28T11:51:57;22.25;16.25;11.50
72467;PMS3003;60626;43.582;1.470;2023-02-28T11:54:30;18.50;18.00;14.75
72467;PMS3003;60626;43.582;1.470;2023-02-28T12:05:36;27.50;22.75;16.25
72467;PMS3003;60626;43.582;1.470;2023-02-28T12:14:03;19.25;16.00;12.50
72467;PMS3003;60626;43.582;1.470;2023-02-28T12:16:59;17.75;17.75;13.50
72467;PMS3003;60626;43.582;1.470;2023-02-28T12:19:48;18.75;18.75;14.00
72467;PMS3003;60626;43.582;1.470;2023-02-28T12:27:27;17.75;16.75;10.50
72467;PMS3003;60626;43.582;1.470;2023-02-28T12:30:00;18.75;18.25;14.75
72467;PMS3003;60626;43.582;1.470;2023-02-28T12:32:34;17.75;17.00;13.75
72467;PMS3003;60626;43.582;1.470;2023-02-28T12:35:06;17.25;17.00;12.00
72467;PMS3003;60626;43.582;1.470;2023-02-28T12:40:32;18.00;18.00;12.25
72467;PMS3003;60626;43.582;1.470;2023-02-28T12:43:18;18.00;17.50;14.50
72467;PMS3003;60626;43.582;1.470;2023-02-28T12:45:52;20.25;18.50;14.00
72467;PMS3003;60626;43.582;1.470;2023-02-28T12:51:10;20.00;18.75;13.50
72467;PMS3003;60626;43.582;1.470;2023-02-28T12:53:47;18.50;17.25;13.75
72467;PMS3003;60626;43.582;1.470;2023-02-28T12:58:56;17.75;13.25;11.00
72467;PMS3003;60626;43.582;1.470;2023-02-28T13:09:55;16.00;15.00;10.25
72467;PMS3003;60626;43.582;1.470;2023-02-28T13:12:25;21.00;19.25;14.75
72467;PMS3003;60626;43.582;1.470;2023-02-28T13:15:01;21.00;20.25;15.00
72467;PMS3003;60626;43.582;1.470;2023-02-28T13:17:48;23.50;17.75;14.25
72467;PMS3003;60626;43.582;1.470;2023-02-28T13:20:20;17.75;17.75;11.25
72467;PMS3003;60626;43.582;1.470;2023-02-28T13:22:55;15.00;14.25;9.25
72467;PMS3003;60626;43.582;1.470;2023-02-28T13:28:03;17.00;15.75;13.00
72467;PMS3003;60626;43.582;1.470;2023-02-28T13:33:29;16.75;15.75;12.75
72467;PMS3003;60626;43.582;1.470;2023-02-28T13:38:37;17.00;15.75;9.75
72467;PMS3003;60626;43.582;1.470;2023-02-28T13:46:28;19.50;17.50;11.00
72467;PMS3003;60626;43.582;1.470;2023-02-28T13:48:56;19.00;16.00;10.75
72467;PMS3003;60626;43.582;1.470;2023-02-28T13:51:44;17.00;15.00;12.25
72467;PMS3003;60626;43.582;1.470;2023-02-28T13:57:19;13.50;11.50;8.25
72467;PMS3003;60626;43.582;1.470;2023-02-28T14:05:21;14.75;14.75;11.25
72467;PMS3003;60626;43.582;1.470;2023-02-28T14:07:52;16.00;15.00;12.75
72467;PMS3003;60626;43.582;1.470;2023-02-28T14:10:28;13.50;13.50;9.50
72467;PMS3003;60626;43.582;1.470;2023-02-28T14:17:59;15.25;14.00;10.50
72467;PMS3003;60626;43.582;1.470;2023-02-28T14:20:29;15.50;11.75;9.00
72467;PMS3003;60626;43.582;1.470;2023-02-28T14:31:28;18.25;16.75;12.00
72467;PMS3003;60626;43.582;1.470;2023-02-28T14:34:14;13.25;13.25;10.50
72467;PMS3003;60626;43.582;1.470;2023-02-28T14:37:03;16.00;16.00;12.00
72467;PMS3003;60626;43.582;1.470;2023-02-28T14:39:31;16.00;14.75;9.25
72467;PMS3003;60626;43.582;1.470;2023-02-28T14:41:59;15.50;15.50;12.25
72467;PMS3003;60626;43.582;1.470;2023-02-28T14:44:30;18.50;17.00;11.75
72467;PMS3003;60626;43.582;1.470;2023-02-28T14:47:01;18.00;16.50;11.25
72467;PMS3003;60626;43.582;1.470;2023-02-28T14:54:43;13.00;10.25;7.75
72467;PMS3003;60626;43.582;1.470;2023-02-28T14:57:21;14.25;12.00;9.00
72467;PMS3003;60626;43.582;1.470;2023-02-28T14:59:56;15.00;15.00;11.25
72467;PMS3003;60626;43.582;1.470;2023-02-28T15:02:31;12.25;12.25;9.50
72467;PMS3003;60626;43.582;1.470;2023-02-28T15:05:09;11.50;11.50;8.50
72467;PMS3003;60626;43.582;1.470;2023-02-28T15:07:43;15.00;12.75;9.25
72467;PMS3003;60626;43.582;1.470;2023-02-28T15:10:19;15.00;15.00;10.75
72467;PMS3003;60626;43.582;1.470;2023-02-28T15:12:54;15.00;13.00;8.75
72467;PMS3003;60626;43.582;1.470;2023-02-28T15:18:38;14.00;14.00;9.75
72467;PMS3003;60626;43.582;1.470;2023-02-28T15:21:38;13.25;10.75;8.25
72467;PMS3003;60626;43.582;1.470;2023-02-28T15:24:11;14.50;14.50;10.50
72467;PMS3003;60626;43.582;1.470;2023-02-28T15:26:54;18.75;15.00;11.25
72467;PMS3003;60626;43.582;1.470;2023-02-28T15:29:25;12.00;11.75;8.50
72467;PMS3003;60626;43.582;1.470;2023-02-28T15:32:01;14.25;12.50;9.00
72467;PMS3003;60626;43.582;1.470;2023-02-28T15:34:37;14.75;14.75;12.25
72467;PMS3003;60626;43.582;1.470;2023-02-28T15:37:30;18.50;15.00;10.00
72467;PMS3003;60626;43.582;1.470;2023-02-28T15:42:38;14.00;13.00;9.75
72467;PMS3003;60626;43.582;1.470;2023-02-28T15:45:05;14.50;12.00;9.00
72467;PMS3003;60626;43.582;1.470;2023-02-28T15:47:52;11.75;11.00;9.00
72467;PMS3003;60626;43.582;1.470;2023-02-28T15:50:21;14.00;14.00;10.50
72467;PMS3003;60626;43.582;1.470;2023-02-28T15:52:48;18.25;16.75;10.50
72467;PMS3003;60626;43.582;1.470;2023-02-28T15:55:26;15.25;14.00;9.75
72467;PMS3003;60626;43.582;1.470;2023-02-28T15:57:55;10.25;8.75;7.25
72467;PMS3003;60626;43.582;1.470;2023-02-28T16:00:26;13.00;13.00;8.75
72467;PMS3003;60626;43.582;1.470;2023-02-28T16:02:54;14.00;14.00;9.00
72467;PMS3003;60626;43.582;1.470;2023-02-28T16:07:59;18.75;14.25;9.25
72467;PMS3003;60626;43.582;1.470;2023-02-28T16:10:28;15.00;15.00;9.75
72467;PMS3003;60626;43.582;1.470;2023-02-28T16:12:56;15.00;11.75;8.25
72467;PMS3003;60626;43.582;1.470;2023-02-28T16:15:25;13.50;13.50;9.00
72467;PMS3003;60626;43.582;1.470;2023-02-28T16:17:55;11.75;11.75;9.50
72467;PMS3003;60626;43.582;1.470;2023-02-28T16:20:24;12.75;11.00;9.00
72467;PMS3003;60626;43.582;1.470;2023-02-28T16:22:53;15.75;13.75;9.00
72467;PMS3003;60626;43.582;1.470;2023-02-28T16:25:24;17.00;15.75;10.00
72467;PMS3003;60626;43.582;1.470;2023-02-28T16:27:59;14.75;14.00;10.00
72467;PMS3003;60626;43.582;1.470;2023-02-28T16:30:27;18.75;15.25;10.00
72467;PMS3003;60626;43.582;1.470;2023-02-28T16:32:57;16.50;15.25;10.00
72467;PMS3003;60626;43.582;1.470;2023-02-28T16:35:25;15.00;12.50;10.00
72467;PMS3003;60626;43.582;1.470;2023-02-28T16:37:52;19.25;15.00;11.25
72467;PMS3003;60626;43.582;1.470;2023-02-28T16:40:21;14.00;14.00;9.75